London, London Gatwick Airport (EGKK)

NameLondon Gatwick Airport
CityLondon
CountryUnited Kingdom
ICAOEGKK
IATALGW
Altitude203 feet
CoordinatesGoogle Map
Live Air TrafficLiveATC.net
METAREGKK 230620Z 24006KT 9999 FEW010 BKN038 16/15 Q1016
2024-07-23 06:20:00 Wind: Southwest (240°) 3.09 m/s - Visibility: > 10000 m - Temperature: 16 °C - Dew point: 15 °C - Humidity: 93.8% - Pressure: 1016 hPa

Sorry, no flights used the airport in this database.